Appleton, Washington
Current Conditions -  °F | °C
As of 1:53 PM on Monday 22 Dec 2014 (Local Time) from KDLS Reporting Station
Clear Clear  
Wind Chill: 53°   Ceiling: Unl
Heat Index: 53°   Visibility: 10mi
Dew Point: 38°   Wind: 10mph
Humidity: 57%   Direction: 320°NW
Pressure: 30.31"   Gusts: NA
Location:  45.81°N, 121.27°W
Report Text: KDLS 222153Z AUTO 32009KT 10SM CLR 12/03 A3031 RMK AO2 SLP264 T01170033
Loading
Personal Weather Stations






























Interactive Weather Map New forecast layout! Learn more

10-Day Weather Forecast

Advertisements
Track Severe Weather on mobile